NCAR-RAP Real-Time Weather Data

Output produced by METARs form (23 February 2020  02:22 UTC)
found at http://weather.rap.ucar.edu/surface/
 
KDCA 230152Z 16003KT 10SM CLR 07/M07 A3027 RMK AO2 SLP250 T00671067
KDCA 230052Z 19006KT 10SM CLR 07/M03 A3027 RMK AO2 SLP251 T00671028
KDCA 222352Z 19005KT 10SM CLR 09/M09 A3027 RMK AO2 SLP249 T00891094 10128 20089 55001
KDCA 222252Z 20006KT 10SM CLR 09/M09 A3026 RMK AO2 SLP246 T00941094
KDCA 222152Z 19007KT 10SM CLR 11/M07 A3026 RMK AO2 SLP245 T01111072
KDCA 222052Z 17011KT 10SM CLR 11/M08 A3027 RMK AO2 SLP250 T01111078 56024
KDCA 221952Z 16009KT 10SM FEW250 12/M09 A3029 RMK AO2 SLP257 T01171094
KDCA 221852Z 21010KT 160V230 10SM FEW250 11/M10 A3031 RMK AO2 SLP262 T01111100
KDCA 221752Z 15010KT 10SM FEW250 09/M09 A3034 RMK AO2 SLP274 T00941094 10094 21028 58029
KDCA 221652Z 17009KT 10SM FEW250 08/M07 A3038 RMK AO2 SLP287 T00781067
KDCA 221552Z 17009KT 10SM FEW250 06/M08 A3041 RMK AO2 SLP297 T00561078
KDCA 221452Z 16005KT 10SM FEW250 03/M11 A3043 RMK AO2 SLP302 T00281106 50009
KDCA 221352Z 18004KT 10SM FEW250 01/M11 A3044 RMK AO2 SLP307 T00111111
KDCA 221252Z 21005KT 10SM FEW250 M01/M12 A3042 RMK AO2 SLP301 T10111117
KDCA 221152Z 19006KT 10SM CLR M03/M12 A3040 RMK AO2 SLP294 T10281122 11006 21033 53003
KDCA 221052Z 18004KT 10SM FEW200 M02/M12 A3039 RMK AO2 SLP291 T10221122
KDCA 220952Z 21006KT 10SM FEW200 M02/M12 A3039 RMK AO2 SLP289 T10221117
KDCA 220852Z 22007KT 10SM FEW200 M02/M12 A3039 RMK AO2 SLP291 T10221122 56013
KDCA 220752Z 23006KT 10SM CLR M02/M12 A3040 RMK AO2 SLP293 T10171122
KDCA 220652Z 25007KT 10SM CLR M01/M13 A3042 RMK AO2 SLP299 T10111128
KDCA 220552Z 23005KT 10SM CLR M01/M12 A3043 RMK AO2 SLP304 T10111122 10022 21011 56012
KDCA 220452Z 25008KT 10SM CLR 00/M12 A3044 RMK AO2 SLP307 T00001122 400391044
KDCA 220352Z 24006KT 10SM CLR M01/M12 A3046 RMK AO2 SLP312 T10061117
KDCA 220252Z 22004KT 10SM CLR 00/M12 A3047 RMK AO2 SLP316 T00001122 58008
KDCA 220152Z 23004KT 10SM CLR 01/M13 A3048 RMK AO2 SLP319 T00111133
KDCA 220052Z 26003KT 10SM CLR 02/M14 A3049 RMK AO2 SLP323 T00221144
KDCA 212352Z 32005KT 10SM CLR 02/M14 A3049 RMK AO2 SLP324 T00171144 10039 20017 55002
KDCA 212252Z 31008KT 10SM CLR 02/M14 A3048 RMK AO2 SLP321 T00221144
KDCA 212152Z 33007KT 10SM CLR 03/M14 A3048 RMK AO2 SLP322 T00331139
KDCA 212052Z 33007KT 10SM CLR 04/M13 A3050 RMK AO2 SLP327 T00391128 56017
KDCA 211952Z 03008KT 10SM CLR 03/M13 A3051 RMK AO2 SLP331 T00331133
KDCA 211852Z 00000KT 10SM CLR 03/M13 A3053 RMK AO2 SLP337 T00281128
KDCA 211752Z 32009G14KT 10SM CLR 02/M12 A3055 RMK AO2 SLP344 T00221122 10022 21044 58010
KDCA 211652Z 35010G15KT 10SM CLR 01/M13 A3058 RMK AO2 SLP353 T00061128
KDCA 211552Z 36007G18KT 10SM CLR 00/M12 A3059 RMK AO2 SLP356 T00001122
KDCA 211452Z 36011G19KT 10SM CLR M02/M13 A3058 RMK AO2 SLP354 T10171133 51015
KDCA 211352Z 36015KT 10SM CLR M02/M13 A3058 RMK AO2 SLP354 T10221133
KDCA 211252Z 36015KT 10SM CLR M04/M13 A3056 RMK AO2 SLP348 T10391133
KDCA 211152Z 36015KT 10SM FEW045 M04/M13 A3054 RMK AO2 SLP339 60000 T10441133 10006 21044 51023
KDCA 211052Z 35018KT 10SM FEW045 M04/M13 A3052 RMK AO2 SLP333 T10391128
KDCA 210952Z 34016KT 10SM FEW045 M03/M12 A3049 RMK AO2 SLP324 T10281122
KDCA 210852Z 35018KT 10SM FEW045 M02/M12 A3047 RMK AO2 SLP316 60000 T10221117 53001
KDCA 210752Z 35013KT 10SM FEW045 M02/M11 A3046 RMK AO2 SLP315 T10171111
KDCA 210652Z 01018KT 10SM BKN045 BKN055 M01/M09 A3047 RMK AO2 SNE0558 SLP316 P0000 T10061094
KDCA 210552Z 02018KT 9SM -SN BKN043 OVC055 01/M08 A3046 RMK AO2 SNB46 SLP315 P0000 60000 T00061083 10033 20006 53007
KDCA 210452Z 35016KT 10SM BKN070 OVC200 01/M07 A3045 RMK AO2 SLP310 T00111072 400560006
KDCA 210352Z 36017KT 10SM SCT060 OVC070 02/M08 A3044 RMK AO2 SLP308 T00171083
KDCA 210252Z 02015KT 10SM OVC075 02/M08 A3044 RMK AO2 SLP308 T00221083 53010